Time;durP1;ratioP1;P1;durP2;ratioP2;P2;SDS_P1;SDS_P2;PMS_P1;PMS_P2;Temp;Humidity;BMP_temperature;BMP_pressure;BME280_temperature;BME280_humidity;BME280_pressure;Samples;Min_cycle;Max_cycle;Signal;HPM_P1;HPM_P2
2023/05/04 00:00:55;;;;;;;16.95;7.95;;;3.00;99.90;;;;;;4422606;28;656425;-76
2023/05/04 00:03:42;;;;;;;14.60;7.63;;;3.00;99.90;;;;;;4300803;28;657951;-77
2023/05/04 00:06:30;;;;;;;15.73;7.17;;;3.00;99.90;;;;;;4257848;28;656304;-77
2023/05/04 00:09:19;;;;;;;13.70;7.10;;;3.00;99.90;;;;;;4331107;28;657354;-77
2023/05/04 00:12:06;;;;;;;12.82;7.10;;;3.00;99.90;;;;;;4423408;28;656477;-77
2023/05/04 00:14:53;;;;;;;14.70;6.93;;;3.00;99.90;;;;;;4446730;28;656978;-76
2023/05/04 00:17:41;;;;;;;14.17;7.43;;;3.00;99.90;;;;;;4422315;28;656448;-76
2023/05/04 00:20:28;;;;;;;17.47;7.47;;;2.90;99.90;;;;;;4445623;28;657365;-76
2023/05/04 00:23:15;;;;;;;12.30;6.70;;;2.90;99.90;;;;;;4423597;28;656935;-76
2023/05/04 00:26:04;;;;;;;13.67;6.87;;;2.80;99.90;;;;;;4436839;28;656741;-76
2023/05/04 00:28:51;;;;;;;9.93;5.87;;;2.80;99.90;;;;;;4418992;28;656561;-76
2023/05/04 00:31:38;;;;;;;12.90;7.07;;;2.80;99.90;;;;;;4441136;28;656077;-76
2023/05/04 00:34:25;;;;;;;10.77;5.80;;;2.80;99.90;;;;;;4422081;28;656442;-76
2023/05/04 00:37:12;;;;;;;9.77;4.90;;;2.80;99.90;;;;;;4444127;28;656236;-76
2023/05/04 00:40:00;;;;;;;11.93;5.23;;;2.80;99.90;;;;;;4437922;28;655603;-77
2023/05/04 00:42:49;;;;;;;10.87;5.23;;;2.90;99.90;;;;;;4440325;28;658921;-76
2023/05/04 00:45:36;;;;;;;14.30;5.20;;;3.00;99.90;;;;;;4416204;28;656869;-76
2023/05/04 00:48:23;;;;;;;13.38;5.78;;;3.20;99.90;;;;;;4445197;28;657253;-76
2023/05/04 00:51:11;;;;;;;16.80;5.27;;;3.40;99.90;;;;;;4426371;28;657412;-76
2023/05/04 00:53:58;;;;;;;11.77;5.37;;;3.50;99.90;;;;;;4446202;28;656887;-76
2023/05/04 00:56:45;;;;;;;14.20;5.57;;;3.70;99.90;;;;;;4424284;28;656981;-76
2023/05/04 00:59:34;;;;;;;7.73;5.20;;;3.70;99.90;;;;;;4435254;28;658019;-76
2023/05/04 01:02:21;;;;;;;13.40;5.03;;;3.80;99.90;;;;;;4424777;28;655467;-77
2023/05/04 01:05:09;;;;;;;16.03;4.87;;;3.80;99.90;;;;;;4432272;28;656309;-76
2023/05/04 01:07:58;;;;;;;10.13;4.70;;;3.80;99.90;;;;;;4425597;28;656592;-76
2023/05/04 01:10:49;;;;;;;8.30;4.63;;;3.80;99.90;;;;;;4424266;28;656885;-77
2023/05/04 01:13:37;;;;;;;7.00;4.33;;;3.90;99.90;;;;;;4419428;28;655622;-76
2023/05/04 01:16:25;;;;;;;6.60;3.93;;;3.90;99.90;;;;;;4439376;28;655642;-77
2023/05/04 01:19:12;;;;;;;8.87;4.20;;;3.90;99.90;;;;;;4424323;28;655740;-76
2023/05/04 01:22:02;;;;;;;7.40;4.33;;;3.80;99.90;;;;;;4434451;28;655746;-76
2023/05/04 01:24:49;;;;;;;8.43;4.23;;;3.80;99.90;;;;;;4436963;28;655520;-77
2023/05/04 01:27:40;;;;;;;7.10;4.03;;;3.80;99.90;;;;;;4416221;28;655808;-77
2023/05/04 01:30:30;;;;;;;9.03;3.93;;;3.80;99.90;;;;;;4412273;28;657060;-76
2023/05/04 01:33:17;;;;;;;7.20;4.20;;;3.70;99.90;;;;;;4413451;28;656744;-77
2023/05/04 01:36:05;;;;;;;7.95;3.95;;;3.70;99.90;;;;;;4441197;28;655484;-77
2023/05/04 01:38:55;;;;;;;6.47;4.17;;;3.70;99.90;;;;;;4423825;28;655804;-76
2023/05/04 01:41:42;;;;;;;7.87;3.90;;;3.80;99.90;;;;;;4416443;28;657095;-76
2023/05/04 01:44:29;;;;;;;6.90;3.43;;;3.70;99.90;;;;;;4446873;28;655526;-76
2023/05/04 01:47:17;;;;;;;6.20;3.70;;;3.70;99.90;;;;;;4420364;28;656421;-76
2023/05/04 01:50:05;;;;;;;8.87;3.80;;;3.70;99.90;;;;;;4435734;28;655374;-76
2023/05/04 01:52:52;;;;;;;6.13;3.63;;;3.60;99.90;;;;;;4417433;28;656248;-77
2023/05/04 01:55:42;;;;;;;6.53;3.60;;;3.60;99.90;;;;;;4434941;28;655484;-77
2023/05/04 01:58:29;;;;;;;7.80;4.27;;;3.60;99.90;;;;;;4448660;28;654977;-76
2023/05/04 02:01:16;;;;;;;8.30;3.90;;;3.60;99.90;;;;;;4421745;28;655995;-76
2023/05/04 02:04:03;;;;;;;7.13;3.80;;;3.60;99.90;;;;;;4444022;28;656935;-76
2023/05/04 02:06:50;;;;;;;9.60;4.47;;;3.70;99.90;;;;;;4417350;28;655553;-76
2023/05/04 02:09:38;;;;;;;8.57;4.03;;;3.60;99.90;;;;;;4306898;28;657125;-76
2023/05/04 02:12:27;;;;;;;7.17;3.50;;;3.60;99.90;;;;;;4253900;28;655653;-76
2023/05/04 02:15:14;;;;;;;5.93;3.90;;;3.60;99.90;;;;;;4337705;28;657232;-76
2023/05/04 02:18:01;;;;;;;8.77;3.60;;;3.60;99.90;;;;;;4422726;28;655649;-76
2023/05/04 02:20:48;;;;;;;7.53;3.53;;;3.60;99.90;;;;;;4444431;28;655847;-76
2023/05/04 02:23:35;;;;;;;7.37;3.13;;;3.60;99.90;;;;;;4415417;28;656043;-77
2023/05/04 02:26:23;;;;;;;7.53;3.60;;;3.60;99.90;;;;;;4443301;28;656178;-76
2023/05/04 02:29:12;;;;;;;7.37;2.87;;;3.70;99.90;;;;;;4433472;28;655811;-76
2023/05/04 02:31:59;;;;;;;13.80;3.67;;;3.70;99.90;;;;;;4441842;28;655524;-76
2023/05/04 02:34:46;;;;;;;5.83;3.30;;;3.80;99.90;;;;;;4420249;28;656491;-76
2023/05/04 02:37:33;;;;;;;9.97;3.60;;;3.90;99.90;;;;;;4442719;28;655923;-76
2023/05/04 02:40:21;;;;;;;5.33;3.10;;;3.90;99.90;;;;;;4417488;28;655795;-76
2023/05/04 02:43:08;;;;;;;7.83;3.43;;;3.90;99.90;;;;;;4444555;28;655159;-76
2023/05/04 02:45:57;;;;;;;5.53;3.33;;;3.90;99.90;;;;;;4421389;28;656010;-76
2023/05/04 02:48:44;;;;;;;9.90;3.77;;;3.90;99.90;;;;;;4441090;28;655491;-76
2023/05/04 02:51:31;;;;;;;10.93;3.70;;;3.90;99.90;;;;;;4418414;28;656341;-76
2023/05/04 02:54:18;;;;;;;8.80;3.60;;;4.00;99.90;;;;;;4444792;28;657798;-76
2023/05/04 02:57:06;;;;;;;7.30;3.07;;;4.10;99.90;;;;;;4423677;28;655641;-76
2023/05/04 02:59:53;;;;;;;5.87;2.90;;;4.10;99.90;;;;;;4442237;28;655791;-76
2023/05/04 03:02:42;;;;;;;5.63;3.30;;;4.10;99.90;;;;;;4427942;28;655260;-76
2023/05/04 03:05:29;;;;;;;5.90;3.03;;;4.00;99.90;;;;;;4449630;28;656146;-76
2023/05/04 03:08:16;;;;;;;6.40;3.33;;;4.00;99.90;;;;;;4428579;28;655985;-76
2023/05/04 03:11:03;;;;;;;6.47;3.13;;;4.10;99.90;;;;;;4443081;28;656042;-76
2023/05/04 03:13:51;;;;;;;6.07;3.10;;;4.10;99.90;;;;;;4425852;28;655479;-76
2023/05/04 03:16:38;;;;;;;5.53;3.10;;;4.20;99.90;;;;;;4434251;28;656669;-76
2023/05/04 03:19:27;;;;;;;5.97;2.77;;;4.10;99.90;;;;;;4424212;28;656031;-76
2023/05/04 03:22:14;;;;;;;4.43;2.67;;;4.10;99.90;;;;;;4448233;28;654628;-76
2023/05/04 03:25:01;;;;;;;6.97;2.63;;;4.10;99.90;;;;;;4427611;28;655639;-76
2023/05/04 03:27:48;;;;;;;7.70;3.03;;;4.10;99.90;;;;;;4447484;28;656746;-76
2023/05/04 03:30:36;;;;;;;7.47;3.30;;;4.00;99.90;;;;;;4427462;28;655982;-76
2023/05/04 03:33:23;;;;;;;7.13;3.30;;;4.00;99.90;;;;;;4440095;28;655457;-76
2023/05/04 03:36:11;;;;;;;6.90;3.13;;;4.00;99.90;;;;;;4425708;28;656078;-76
2023/05/04 03:38:59;;;;;;;5.53;2.90;;;4.00;99.90;;;;;;4440772;28;656679;-76
2023/05/04 03:41:48;;;;;;;6.67;3.07;;;4.00;99.90;;;;;;4423575;28;656069;-76
2023/05/04 03:44:35;;;;;;;10.60;3.07;;;3.90;99.90;;;;;;4426604;28;655683;-76
2023/05/04 03:47:22;;;;;;;6.57;3.10;;;4.00;99.90;;;;;;4447939;28;657024;-76
2023/05/04 03:50:12;;;;;;;6.13;3.20;;;4.00;99.90;;;;;;4441280;28;655141;-76
2023/05/04 03:53:00;;;;;;;5.83;3.47;;;4.00;99.90;;;;;;4442709;28;655612;-76
2023/05/04 03:55:47;;;;;;;6.93;3.20;;;4.00;99.90;;;;;;4427282;28;656139;-76
2023/05/04 03:58:35;;;;;;;7.23;3.07;;;4.00;99.90;;;;;;4446663;28;655377;-76
2023/05/04 04:01:22;;;;;;;7.27;2.97;;;4.20;99.90;;;;;;4422168;28;655980;-76
2023/05/04 04:04:09;;;;;;;4.97;2.97;;;4.20;99.90;;;;;;4441401;28;655772;-76
2023/05/04 04:06:56;;;;;;;6.50;3.10;;;4.30;99.90;;;;;;4424033;28;655796;-76
2023/05/04 04:09:45;;;;;;;6.83;3.37;;;4.30;99.90;;;;;;4448066;28;656060;-76
2023/05/04 04:12:32;;;;;;;6.20;2.90;;;4.40;99.90;;;;;;4421596;28;655730;-76
2023/05/04 04:15:19;;;;;;;5.13;2.77;;;4.50;99.90;;;;;;4444679;28;656479;-76
2023/05/04 04:18:07;;;;;;;8.83;3.20;;;4.60;99.90;;;;;;4426838;28;656503;-76
2023/05/04 04:20:54;;;;;;;6.27;3.10;;;4.90;99.90;;;;;;4439779;28;656115;-76
2023/05/04 04:23:41;;;;;;;5.43;2.70;;;5.10;99.90;;;;;;4422591;28;655905;-76
2023/05/04 04:26:30;;;;;;;5.80;2.70;;;5.30;99.90;;;;;;4447365;28;656767;-76
2023/05/04 04:29:17;;;;;;;7.37;2.90;;;5.60;99.90;;;;;;4423009;28;656882;-76
2023/05/04 04:32:04;;;;;;;5.70;2.70;;;5.80;99.90;;;;;;4447864;28;655239;-76
2023/05/04 04:34:52;;;;;;;5.57;2.90;;;6.00;99.90;;;;;;4421260;28;655607;-75
2023/05/04 04:37:39;;;;;;;7.80;3.00;;;6.20;99.90;;;;;;4438616;28;655495;-75
2023/05/04 04:40:26;;;;;;;6.63;2.90;;;6.40;99.90;;;;;;4416712;28;655784;-76
2023/05/04 04:43:15;;;;;;;8.73;3.22;;;6.60;99.90;;;;;;4445227;28;656954;-75
2023/05/04 04:46:03;;;;;;;8.73;3.40;;;6.70;99.90;;;;;;4417152;28;656649;-76
2023/05/04 04:48:52;;;;;;;6.93;3.10;;;6.90;99.90;;;;;;4425209;28;655652;-76
2023/05/04 04:51:40;;;;;;;6.77;3.30;;;7.10;99.90;;;;;;4439641;28;655659;-75
2023/05/04 04:54:27;;;;;;;9.97;3.37;;;7.30;99.90;;;;;;4425424;28;655502;-75
2023/05/04 04:57:15;;;;;;;5.97;3.20;;;7.40;99.90;;;;;;4435223;28;655945;-76
2023/05/04 05:00:07;;;;;;;4.97;2.90;;;7.50;99.90;;;;;;4448085;28;655766;-76
2023/05/04 05:02:55;;;;;;;4.80;2.83;;;7.70;99.90;;;;;;4415904;28;655694;-76
2023/05/04 05:05:42;;;;;;;5.90;3.10;;;7.90;99.90;;;;;;4446718;28;655138;-76
2023/05/04 05:08:32;;;;;;;7.63;3.23;;;8.10;99.90;;;;;;4437756;28;655573;-75
2023/05/04 05:11:19;;;;;;;6.00;3.77;;;8.20;99.90;;;;;;4443283;28;656002;-76
2023/05/04 05:14:06;;;;;;;8.50;4.10;;;8.40;99.90;;;;;;4412902;28;655806;-76
2023/05/04 05:16:55;;;;;;;7.50;4.93;;;8.60;99.90;;;;;;4440394;28;655922;-76
2023/05/04 05:19:42;;;;;;;9.63;4.07;;;8.70;99.90;;;;;;4425561;28;655883;-74
2023/05/04 05:22:29;;;;;;;8.13;3.07;;;8.80;99.90;;;;;;4445063;28;655563;-74
2023/05/04 05:25:17;;;;;;;6.53;3.00;;;9.10;99.90;;;;;;4420869;28;655569;-73
2023/05/04 05:28:04;;;;;;;5.87;2.80;;;9.30;99.90;;;;;;4444461;28;655269;-73
2023/05/04 05:30:51;;;;;;;8.90;3.10;;;9.40;99.90;;;;;;4416331;28;656838;-73
2023/05/04 05:33:40;;;;;;;9.70;3.53;;;9.60;99.90;;;;;;4440524;28;656339;-73
2023/05/04 05:36:27;;;;;;;6.63;3.40;;;9.70;99.90;;;;;;4419061;28;656491;-74
2023/05/04 05:39:15;;;;;;;4.73;2.63;;;9.90;99.90;;;;;;4441232;28;655291;-72
2023/05/04 05:42:02;;;;;;;6.20;2.93;;;10.00;99.90;;;;;;4419253;28;656635;-73
2023/05/04 05:44:49;;;;;;;8.30;3.10;;;10.10;99.90;;;;;;4439882;28;656499;-75
2023/05/04 05:47:37;;;;;;;7.50;3.60;;;10.20;99.90;;;;;;4416186;28;657674;-76
2023/05/04 05:50:25;;;;;;;5.53;2.83;;;10.30;99.90;;;;;;4437956;28;656514;-77
2023/05/04 05:53:12;;;;;;;4.30;2.40;;;10.40;99.90;;;;;;4421663;28;657288;-76
2023/05/04 05:56:00;;;;;;;6.53;2.60;;;10.50;99.90;;;;;;4431697;28;657671;-74
2023/05/04 05:58:47;;;;;;;3.87;2.67;;;10.70;99.90;;;;;;4442806;28;656836;-76
2023/05/04 06:01:34;;;;;;;6.23;2.73;;;10.80;99.90;;;;;;4437297;28;656584;-74
2023/05/04 06:04:22;;;;;;;5.53;2.50;;;11.00;99.90;;;;;;4415381;28;657191;-76
2023/05/04 06:07:12;;;;;;;4.87;2.07;;;11.10;99.90;;;;;;4436764;28;656738;-76
2023/05/04 06:09:59;;;;;;;8.00;2.40;;;11.30;99.90;;;;;;4424400;28;656195;-76
2023/05/04 06:12:46;;;;;;;7.60;2.30;;;11.40;99.90;;;;;;4346436;28;656957;-74
2023/05/04 06:15:35;;;;;;;4.50;2.20;;;11.50;99.90;;;;;;4290159;28;658091;-75
2023/05/04 06:18:22;;;;;;;4.80;2.37;;;11.60;99.90;;;;;;4244269;28;656938;-72
2023/05/04 06:21:09;;;;;;;8.03;2.30;;;11.70;99.90;;;;;;4437532;28;656588;-77
2023/05/04 06:23:58;;;;;;;3.97;2.00;;;11.80;99.90;;;;;;4415931;28;656533;-77
2023/05/04 06:26:45;;;;;;;7.03;2.37;;;11.80;99.90;;;;;;4417736;28;656507;-75
2023/05/04 06:29:32;;;;;;;6.50;2.13;;;11.80;99.90;;;;;;4444628;28;657429;-78
2023/05/04 06:32:20;;;;;;;5.83;2.20;;;12.00;99.90;;;;;;4436040;28;656608;-75
2023/05/04 06:35:09;;;;;;;3.03;2.03;;;12.20;99.90;;;;;;4437030;28;656370;-77
2023/05/04 06:37:57;;;;;;;4.00;2.30;;;12.30;99.90;;;;;;4422420;28;656709;-77
2023/05/04 06:40:45;;;;;;;3.87;2.20;;;12.30;96.60;;;;;;4439155;28;656672;-78
2023/05/04 06:43:32;;;;;;;3.97;2.40;;;12.40;97.40;;;;;;4414662;28;657463;-79
2023/05/04 06:46:20;;;;;;;3.83;2.20;;;12.50;96.40;;;;;;4442343;28;657027;-75
2023/05/04 06:49:07;;;;;;;4.30;2.30;;;12.70;96.60;;;;;;4444282;28;655702;-78
2023/05/04 06:51:55;;;;;;;3.60;2.07;;;12.70;94.70;;;;;;4442514;28;657705;-78
2023/05/04 06:54:42;;;;;;;4.80;2.10;;;12.80;96.10;;;;;;4409186;28;657406;-77
2023/05/04 06:57:31;;;;;;;5.10;2.10;;;12.90;95.40;;;;;;4446735;28;656461;-79
2023/05/04 07:00:18;;;;;;;3.37;2.20;;;13.10;94.10;;;;;;4414569;28;657493;-77
2023/05/04 07:03:06;;;;;;;3.10;2.10;;;13.10;91.80;;;;;;4421625;28;656672;-77
2023/05/04 07:05:53;;;;;;;4.27;2.10;;;13.10;91.80;;;;;;4431657;28;657779;-77
2023/05/04 07:08:41;;;;;;;6.47;2.50;;;13.20;91.20;;;;;;4426583;28;656401;-74
2023/05/04 07:11:29;;;;;;;3.93;2.00;;;13.30;94.00;;;;;;4440568;28;656642;-78
2023/05/04 07:14:18;;;;;;;5.17;2.30;;;13.50;91.60;;;;;;4421155;28;656587;-78
2023/05/04 07:17:05;;;;;;;3.50;2.10;;;13.80;93.40;;;;;;4416763;28;657143;-74
2023/05/04 07:19:52;;;;;;;5.93;2.20;;;13.80;88.20;;;;;;4445133;28;656527;-74
2023/05/04 07:22:39;;;;;;;5.30;2.43;;;13.90;87.60;;;;;;4429378;28;656369;-77
2023/05/04 07:25:27;;;;;;;4.57;2.50;;;14.10;90.30;;;;;;4417184;28;657374;-76
2023/05/04 07:28:15;;;;;;;7.77;2.77;;;14.20;83.60;;;;;;4441272;28;656176;-79
2023/05/04 07:31:04;;;;;;;3.70;2.17;;;14.10;84.10;;;;;;4423094;28;657278;-77
2023/05/04 07:33:51;;;;;;;4.30;2.37;;;14.10;82.60;;;;;;4424140;28;657476;-76
2023/05/04 07:36:38;;;;;;;3.53;2.30;;;14.20;88.00;;;;;;4438840;28;657476;-79
2023/05/04 07:39:26;;;;;;;4.80;2.70;;;13.80;81.60;;;;;;4419606;28;657427;-78
2023/05/04 07:42:13;;;;;;;4.73;2.63;;;13.90;83.30;;;;;;4441873;28;657154;-79
2023/05/04 07:45:00;;;;;;;4.77;2.53;;;14.00;81.50;;;;;;4425398;28;656798;-76
2023/05/04 07:47:49;;;;;;;4.83;2.40;;;14.30;81.60;;;;;;4439965;28;657185;-79
2023/05/04 07:50:36;;;;;;;4.10;2.60;;;14.50;83.10;;;;;;4425178;28;658385;-76
2023/05/04 07:53:25;;;;;;;4.83;2.40;;;14.40;76.60;;;;;;4444159;28;658002;-78
2023/05/04 07:56:12;;;;;;;7.23;3.30;;;14.60;77.30;;;;;;4422782;28;656971;-79
2023/05/04 07:58:59;;;;;;;6.53;2.90;;;14.90;76.70;;;;;;4439801;28;656198;-77
2023/05/04 08:01:46;;;;;;;6.60;3.07;;;15.10;76.50;;;;;;4424151;28;656404;-79
2023/05/04 08:04:35;;;;;;;10.13;3.50;;;15.40;78.90;;;;;;4438102;28;656772;-75
2023/05/04 08:07:22;;;;;;;5.60;2.67;;;15.70;78.50;;;;;;4422071;28;657530;-79
2023/05/04 08:10:10;;;;;;;7.53;3.07;;;15.60;72.70;;;;;;4439622;28;656265;-78
2023/05/04 08:12:57;;;;;;;6.35;2.83;;;15.60;77.70;;;;;;4424029;28;656761;-78
2023/05/04 08:15:45;;;;;;;8.07;2.93;;;15.40;72.70;;;;;;4435888;28;656723;-75
2023/05/04 08:18:32;;;;;;;3.27;2.60;;;15.40;74.50;;;;;;4424374;28;656639;-77
2023/05/04 08:21:20;;;;;;;4.20;2.90;;;15.70;79.60;;;;;;4437953;28;656729;-76
2023/05/04 08:24:08;;;;;;;6.07;2.93;;;16.10;70.40;;;;;;4411074;28;656982;-78
2023/05/04 08:26:56;;;;;;;8.03;3.20;;;16.40;70.40;;;;;;4435477;28;656528;-75
2023/05/04 08:29:43;;;;;;;5.60;2.70;;;16.30;66.40;;;;;;4446153;28;656381;-75
2023/05/04 08:32:31;;;;;;;7.40;2.70;;;16.60;68.70;;;;;;4425125;28;656450;-76
2023/05/04 08:35:18;;;;;;;5.88;2.58;;;16.70;70.00;;;;;;4438028;28;656721;-78
2023/05/04 08:38:07;;;;;;;4.57;2.37;;;16.90;71.40;;;;;;4420505;28;656749;-75
2023/05/04 08:40:54;;;;;;;5.23;2.70;;;17.00;64.60;;;;;;4440262;28;656361;-77
2023/05/04 08:43:42;;;;;;;3.83;2.17;;;17.30;62.20;;;;;;4420058;28;656486;-78
2023/05/04 08:46:30;;;;;;;4.07;2.40;;;17.30;60.60;;;;;;4443370;28;656477;-79
2023/05/04 08:49:17;;;;;;;5.60;2.60;;;16.80;61.20;;;;;;4414699;28;657934;-77
2023/05/04 08:52:05;;;;;;;4.70;2.67;;;17.00;57.10;;;;;;4438216;28;656793;-78
2023/05/04 08:54:54;;;;;;;7.17;2.63;;;17.20;60.40;;;;;;4420492;28;657289;-76
2023/05/04 08:57:42;;;;;;;4.43;2.90;;;17.40;64.30;;;;;;4418680;28;656442;-78
2023/05/04 09:00:29;;;;;;;4.37;2.37;;;17.70;66.80;;;;;;4440992;28;656766;-77
2023/05/04 09:03:17;;;;;;;5.03;2.60;;;18.00;61.90;;;;;;4423390;28;656655;-74
2023/05/04 09:06:04;;;;;;;5.60;2.40;;;18.10;59.40;;;;;;4440466;28;656367;-75
2023/05/04 09:08:51;;;;;;;4.17;2.63;;;18.10;57.80;;;;;;4419700;28;662340;-76
2023/05/04 09:11:40;;;;;;;6.63;2.80;;;18.00;58.60;;;;;;4440869;28;657894;-78
2023/05/04 09:14:32;;;;;;;5.97;2.80;;;18.00;58.90;;;;;;4423684;28;658206;-77
2023/05/04 09:17:24;;;;;;;3.73;2.80;;;18.00;56.20;;;;;;4418622;28;657009;-78
2023/05/04 09:20:12;;;;;;;6.33;2.67;;;18.30;55.90;;;;;;4427471;28;656762;-77
2023/05/04 09:23:01;;;;;;;5.50;2.40;;;18.10;59.60;;;;;;4441723;28;656968;-77
2023/05/04 09:25:48;;;;;;;6.07;2.87;;;18.10;55.60;;;;;;4415119;28;660061;-76
2023/05/04 09:28:38;;;;;;;4.60;2.73;;;18.30;57.70;;;;;;4419013;28;656915;-73
2023/05/04 09:31:25;;;;;;;4.93;2.53;;;17.70;56.30;;;;;;4419662;28;656864;-74
2023/05/04 09:34:13;;;;;;;8.20;2.70;;;18.00;54.70;;;;;;4443331;28;657186;-74
2023/05/04 09:37:01;;;;;;;4.07;2.60;;;18.20;55.30;;;;;;4419020;28;656549;-73
2023/05/04 09:39:52;;;;;;;3.47;2.40;;;18.70;56.50;;;;;;4436201;28;657340;-75
2023/05/04 09:42:40;;;;;;;4.95;2.80;;;18.90;56.20;;;;;;4395576;28;656422;-75
2023/05/04 09:45:38;;;;;;;5.70;2.63;;;18.70;53.60;;;;;;4436385;28;656788;-75
2023/05/04 09:48:25;;;;;;;9.23;2.70;;;18.00;55.10;;;;;;4398868;28;656873;-75
2023/05/04 09:51:14;;;;;;;5.70;3.03;;;18.00;55.20;;;;;;4433924;28;657481;-76
2023/05/04 09:54:02;;;;;;;6.00;2.90;;;18.30;54.90;;;;;;4416042;28;656884;-75
2023/05/04 09:56:50;;;;;;;5.03;2.50;;;18.70;52.50;;;;;;4438959;28;656561;-76
2023/05/04 09:59:37;;;;;;;4.90;2.80;;;19.20;55.50;;;;;;4414727;28;658895;-74
2023/05/04 10:02:25;;;;;;;8.33;2.87;;;19.10;54.00;;;;;;4438675;28;656258;-75
2023/05/04 10:05:15;;;;;;;6.37;2.53;;;19.30;53.60;;;;;;4415385;28;657213;-75
2023/05/04 10:08:03;;;;;;;4.90;3.10;;;18.90;51.30;;;;;;4415529;28;656882;-75
2023/05/04 10:10:50;;;;;;;5.23;2.67;;;18.90;54.20;;;;;;4421442;28;657181;-73
2023/05/04 10:13:37;;;;;;;7.93;3.20;;;19.20;53.60;;;;;;4444612;28;657511;-76
2023/05/04 10:16:31;;;;;;;6.87;3.47;;;19.10;50.40;;;;;;4429841;28;656448;-75
2023/05/04 10:19:30;;;;;;;7.30;3.10;;;18.10;53.80;;;;;;4417334;28;656517;-75
2023/05/04 10:22:25;;;;;;;5.70;3.33;;;18.20;53.70;;;;;;4421938;28;656360;-75
2023/05/04 10:25:36;;;;;;;3.87;2.93;;;18.80;56.40;;;;;;4415962;28;657072;-76
2023/05/04 10:28:30;;;;;;;6.07;3.22;;;18.90;53.30;;;;;;4416681;28;656728;-76
2023/05/04 10:31:17;;;;;;;4.80;2.80;;;18.90;55.80;;;;;;4394905;28;657297;-76
2023/05/04 10:34:04;;;;;;;8.33;2.90;;;19.00;53.70;;;;;;4437187;28;656456;-76
2023/05/04 10:36:53;;;;;;;4.87;3.07;;;19.30;55.00;;;;;;4420643;28;656458;-76
2023/05/04 10:39:40;;;;;;;6.30;3.20;;;19.70;51.30;;;;;;4407618;28;656404;-74
2023/05/04 10:42:27;;;;;;;4.73;3.23;;;20.40;54.00;;;;;;4438324;28;657129;-76
2023/05/04 10:45:17;;;;;;;5.77;3.00;;;20.40;51.40;;;;;;4435004;28;656987;-74
2023/05/04 10:48:05;;;;;;;7.10;3.20;;;20.40;53.60;;;;;;4438021;28;656747;-77
2023/05/04 10:50:52;;;;;;;5.40;3.23;;;20.50;49.30;;;;;;4425333;28;656927;-77
2023/05/04 10:53:42;;;;;;;7.93;3.30;;;21.10;55.80;;;;;;4435759;28;656607;-73
2023/05/04 10:56:29;;;;;;;4.60;2.80;;;21.10;50.60;;;;;;4436544;28;656244;-75
2023/05/04 10:59:16;;;;;;;5.90;3.13;;;20.90;50.90;;;;;;4423070;28;657987;-75
2023/05/04 11:02:04;;;;;;;5.60;3.10;;;20.10;48.40;;;;;;4413113;28;657065;-76
2023/05/04 11:05:05;;;;;;;6.47;3.47;;;19.90;50.50;;;;;;4428537;28;656928;-75
2023/05/04 11:07:52;;;;;;;3.67;2.90;;;19.80;53.00;;;;;;4396240;28;657135;-75
2023/05/04 11:10:41;;;;;;;4.67;2.90;;;20.10;49.50;;;;;;4434962;28;656594;-74
2023/05/04 11:13:29;;;;;;;5.53;3.23;;;20.20;49.20;;;;;;4424118;28;658047;-76
2023/05/04 11:16:22;;;;;;;8.60;3.63;;;20.30;50.80;;;;;;4416877;28;656260;-76
2023/05/04 11:19:11;;;;;;;6.57;3.00;;;20.80;48.20;;;;;;4445381;28;656609;-74
2023/05/04 11:21:59;;;;;;;6.10;3.10;;;21.10;55.30;;;;;;4444671;28;657004;-76
2023/05/04 11:24:47;;;;;;;7.07;3.00;;;21.40;51.50;;;;;;4423272;28;656963;-76
2023/05/04 11:27:37;;;;;;;3.93;3.00;;;21.60;47.40;;;;;;4444007;28;656688;-74
2023/05/04 11:30:31;;;;;;;4.60;2.90;;;21.60;47.30;;;;;;4447155;28;656436;-77
2023/05/04 11:33:18;;;;;;;5.80;2.90;;;21.50;47.30;;;;;;4415558;28;657098;-76
2023/05/04 11:36:06;;;;;;;3.60;3.07;;;21.50;47.40;;;;;;4426902;28;656534;-75
2023/05/04 11:38:56;;;;;;;6.40;3.43;;;21.40;44.70;;;;;;4443879;28;657564;-75
2023/05/04 11:41:44;;;;;;;5.73;2.83;;;20.50;46.70;;;;;;4413465;28;656527;-76
2023/05/04 11:44:32;;;;;;;5.37;3.27;;;20.10;46.80;;;;;;4422007;28;656741;-76
2023/05/04 11:47:20;;;;;;;5.20;2.73;;;20.60;48.70;;;;;;4441927;28;656678;-74
2023/05/04 11:50:09;;;;;;;4.30;2.70;;;20.80;48.70;;;;;;4444859;28;657248;-75
2023/05/04 11:53:03;;;;;;;5.40;3.00;;;20.80;48.70;;;;;;4423520;28;657154;-75
2023/05/04 11:55:53;;;;;;;6.77;2.77;;;21.20;49.50;;;;;;4403241;28;656363;-77
2023/05/04 11:58:40;;;;;;;5.73;3.07;;;20.90;47.40;;;;;;4430598;28;656358;-75
2023/05/04 12:01:36;;;;;;;4.57;3.10;;;20.90;43.50;;;;;;4440584;28;656569;-76
2023/05/04 12:04:23;;;;;;;5.83;3.50;;;20.60;46.70;;;;;;4419051;28;657028;-78
2023/05/04 12:07:10;;;;;;;4.80;3.10;;;20.50;51.10;;;;;;4419988;28;658306;-75
2023/05/04 12:09:57;;;;;;;6.43;3.30;;;20.40;47.40;;;;;;4264463;28;656179;-74
2023/05/04 12:12:45;;;;;;;5.80;3.27;;;19.70;48.60;;;;;;4259192;28;656790;-74
2023/05/04 12:15:34;;;;;;;6.83;3.50;;;19.50;48.80;;;;;;4384667;28;657550;-76
2023/05/04 12:18:28;;;;;;;7.00;3.77;;;19.70;50.90;;;;;;4422352;28;657008;-76
2023/05/04 12:21:17;;;;;;;6.77;3.40;;;20.20;55.10;;;;;;4409092;28;656714;-75
2023/05/04 12:24:05;;;;;;;7.57;3.10;;;20.70;49.40;;;;;;4432183;28;656835;-76
2023/05/04 12:26:53;;;;;;;5.25;3.72;;;20.90;49.00;;;;;;4414498;28;657178;-77
2023/05/04 12:29:40;;;;;;;6.60;3.40;;;21.20;47.50;;;;;;4431327;28;656434;-74
2023/05/04 12:32:27;;;;;;;5.67;3.40;;;21.20;46.60;;;;;;4447025;28;657895;-78
2023/05/04 12:35:17;;;;;;;6.63;3.73;;;21.30;49.60;;;;;;4441711;28;656514;-76
2023/05/04 12:38:04;;;;;;;5.00;3.33;;;21.40;47.90;;;;;;4441312;28;657334;-76
2023/05/04 12:40:51;;;;;;;5.30;3.40;;;21.00;46.80;;;;;;4423212;28;656128;-77
2023/05/04 12:43:38;;;;;;;8.10;3.53;;;21.00;48.00;;;;;;4440358;28;657339;-75
2023/05/04 12:46:25;;;;;;;8.03;3.67;;;21.00;48.30;;;;;;4427426;28;656538;-75
2023/05/04 12:49:13;;;;;;;7.00;3.50;;;21.30;47.50;;;;;;4445709;28;656951;-77
2023/05/04 12:52:02;;;;;;;5.30;3.20;;;20.90;46.30;;;;;;4423238;28;657253;-75
2023/05/04 12:54:49;;;;;;;6.80;3.33;;;20.80;46.60;;;;;;4448754;28;656822;-77
2023/05/04 12:57:38;;;;;;;6.03;3.10;;;20.90;44.90;;;;;;4411205;28;656751;-76
2023/05/04 13:00:25;;;;;;;5.43;3.50;;;21.30;45.30;;;;;;4414561;28;656555;-75
2023/05/04 13:03:13;;;;;;;3.70;2.80;;;21.80;46.20;;;;;;4429946;28;657070;-77
2023/05/04 13:06:00;;;;;;;5.50;3.60;;;21.90;45.80;;;;;;4423922;28;656773;-74
2023/05/04 13:08:49;;;;;;;4.67;3.17;;;22.00;46.80;;;;;;4445829;28;657407;-76
2023/05/04 13:11:36;;;;;;;4.77;3.10;;;21.80;44.50;;;;;;4416931;28;657360;-75
2023/05/04 13:14:23;;;;;;;5.73;2.90;;;21.70;44.40;;;;;;4443809;28;657169;-77
2023/05/04 13:17:10;;;;;;;6.27;3.30;;;22.00;44.40;;;;;;4422638;28;657686;-75
2023/05/04 13:19:57;;;;;;;3.27;2.63;;;22.50;42.20;;;;;;4443163;28;659128;-75
2023/05/04 13:22:46;;;;;;;4.17;2.67;;;22.80;43.60;;;;;;4436449;28;656387;-73
2023/05/04 13:25:35;;;;;;;7.70;2.90;;;20.90;42.70;;;;;;4447044;28;657373;-76
2023/05/04 13:28:22;;;;;;;4.37;3.10;;;21.50;44.10;;;;;;4417779;28;657360;-74
2023/05/04 13:31:09;;;;;;;4.67;2.97;;;21.90;45.50;;;;;;4437682;28;656492;-74
2023/05/04 13:33:56;;;;;;;5.28;3.08;;;22.00;43.10;;;;;;4422015;28;657527;-75
2023/05/04 13:36:43;;;;;;;4.60;3.07;;;22.20;43.90;;;;;;4430389;28;656930;-75
2023/05/04 13:39:37;;;;;;;2.93;2.47;;;22.30;45.10;;;;;;4403235;28;656980;-75
2023/05/04 13:42:25;;;;;;;5.37;2.53;;;22.20;43.90;;;;;;4392124;28;656688;-75
2023/05/04 13:45:13;;;;;;;6.20;2.50;;;22.50;45.70;;;;;;4404964;28;657621;-76
2023/05/04 13:48:00;;;;;;;6.63;3.10;;;22.70;44.40;;;;;;4404913;28;657021;-74
2023/05/04 13:50:48;;;;;;;5.27;2.23;;;22.80;41.40;;;;;;4430126;28;657092;-75
2023/05/04 13:53:36;;;;;;;4.47;2.57;;;22.80;41.80;;;;;;4415283;28;656163;-75
2023/05/04 13:56:23;;;;;;;6.27;2.80;;;22.70;41.00;;;;;;4432092;28;656905;-76
2023/05/04 13:59:12;;;;;;;4.70;2.80;;;22.60;43.70;;;;;;4407232;28;656925;-75
2023/05/04 14:01:59;;;;;;;3.37;2.50;;;22.30;41.00;;;;;;4424752;28;656459;-74
2023/05/04 14:04:46;;;;;;;5.40;2.80;;;22.50;40.20;;;;;;4405831;28;656896;-75
2023/05/04 14:07:34;;;;;;;3.90;2.67;;;22.40;41.80;;;;;;4425366;28;657117;-75
2023/05/04 14:10:21;;;;;;;6.87;2.60;;;22.40;42.50;;;;;;4405674;28;657627;-75
2023/05/04 14:13:08;;;;;;;6.33;2.50;;;21.80;42.20;;;;;;4419106;28;657474;-73
2023/05/04 14:15:57;;;;;;;5.73;2.70;;;21.90;41.80;;;;;;4402587;28;657650;-76
2023/05/04 14:18:44;;;;;;;5.03;2.47;;;22.00;42.80;;;;;;4422680;28;656397;-75
2023/05/04 14:21:32;;;;;;;4.30;2.63;;;22.20;41.40;;;;;;4400923;28;659055;-75
2023/05/04 14:24:19;;;;;;;4.93;2.60;;;22.30;40.70;;;;;;4422536;28;657175;-76
2023/05/04 14:27:06;;;;;;;3.03;2.20;;;22.00;42.20;;;;;;4402501;28;656575;-75